KMUO/MUO METAR and TAF weather

Enter ICAO airport designator
Station Type Date Time Source
KMUO METAR 2022/05/24 10:58 UTC NOAA

KMUO 241058Z AUTO 31004KT 10SM CLR 05/M03 A3000 RMK AO2 SLP153 T00521029 $


Station Type Date Time Source
KMUO Decoded METAR 2022/05/24 10:58 UTC NOAA

Mountain Home Air Force Base, ID, United States (KMUO) 43-03N 115-52W
May 24, 2022 - 06:58 AM EDT / 2022.05.24 1058 UTC
Wind: from the NW (310 degrees) at 5 MPH (4 KT):0
Visibility: 10 mile(s):0
Sky conditions: clear
Temperature: 41.4 F (5.2 C)
Dew Point: 26.8 F (-2.9 C)
Relative Humidity: 55%
Pressure (altimeter): 30 in. Hg (1015 hPa)
ob: KMUO 241058Z AUTO 31004KT 10SM CLR 05/M03 A3000 RMK AO2 SLP153 T00521029
cycle: 11

Station Type Date Time Source
KMUO TAF 2022/05/24 10:58 UTC NOAA

TAF KMUO 241000Z 2410/2516 32009KT 9999 SCT090 QNH2999INS
BECMG 2413/2414 32012G20KT 9999 FEW060 QNH3003INS
BECMG 2421/2422 32009KT 9999 FEW070 QNH3002INS
BECMG 2501/2502 VRB06KT 9999 BKN080 QNH2998INS
BECMG 2512/2513 VRB06KT 9999 SCT080 QNH3002INS TX24/2423Z TN06/2413Z

Example: see airport list